Details From USSS - Koltsovo
To USTR - Roschino
Flight Number -
Tags Generated
Created
Modified
Stats Distance 150 nm / 278 km
Max Altitude 0 ft / 0 m
Waypoints 2
Social Downloads 6
Likes 0
Share VATSIM

Download

Looking for another format? Having issues loading an existing format? Contact us
Advertisement - Login to hide

Notes

Generated

Route

USSS USTR

ID Type Via Altitude Latitude Longitude Leg Dist Tot Dist Heading (true) Name
O USSS APT - 0 ft / 0 m 56.74481˚ 60.78140˚ - 0 nm - -
O USTR APT - 0 ft / 0 m 57.17551˚ 65.29199˚ 149 nm 149 nm 78° / 82° -

Altitude Profile

Advertisement - Login to hide

USSS

Details ICAO USSS (SVX)
Name KOLTSOVO
Region Russia
Timezone Asia/Yekaterinburg (UTC+5.0)
Stats Elevation 764 ft / 233 m (AMSL)
Location 56.743108° 60.802727°
Runways 2
Magnetic Variation 14.901° E

METAR

Not found

TAF

TAF USSS 280201Z 2803/2903 33004MPS 9999 BKN011 BKN015CB TEMPO 2803/2812 34010MPS 3100 -SHRA

Decode

Departure Runways

ID Width Length Bearing (true) Bearing (mag) Surface Threshold Offset Overrun Length
08L 148 ft / 45 m 8,172 ft / 2,491 m 90.13° 75.23° Asphalt 0 ft / 0 m 230 ft / 70 m
08R 174 ft / 53 m 9,861 ft / 3,006 m 94.09° 79.19° Concrete 246 ft / 75 m 165 ft / 50 m
26L 174 ft / 53 m 9,861 ft / 3,006 m 274.14° 259.24° Concrete 1,066 ft / 325 m 165 ft / 50 m
26R 148 ft / 45 m 8,172 ft / 2,491 m 270.17° 255.27° Asphalt 0 ft / 0 m 220 ft / 67 m

USTR

Details ICAO USTR (TJM)
Name Roschino
Region Russia
Timezone Asia/Yekaterinburg (UTC+5.0)
Stats Elevation 377 ft / 115 m (AMSL)
Location 57.180416° 65.314677°
Runways 3
Magnetic Variation 15.006° E

METAR

Not found

TAF

TAF USTR 280156Z 2803/2903 34008G13MPS 9999 SCT011 BKN020CB TEMPO 2803/2818 36011G16MPS 4000 -SHRA BKN007 BKN015CB

Decode

Destination Runways

ID Width Length Bearing (true) Bearing (mag) Surface Threshold Offset Overrun Length
03 148 ft / 45 m 9,827 ft / 2,995 m 47.68° 32.67° Asphalt 0 ft / 0 m 0 ft / 0 m
03L 328 ft / 100 m 6,705 ft / 2,044 m 47.58° 32.57° Grass 0 ft / 0 m 0 ft / 0 m
12 164 ft / 50 m 8,820 ft / 2,688 m 134.79° 119.78° Asphalt 0 ft / 0 m 0 ft / 0 m
21 148 ft / 45 m 9,827 ft / 2,995 m 227.71° 212.70° Asphalt 0 ft / 0 m 0 ft / 0 m
21R 328 ft / 100 m 6,705 ft / 2,044 m 227.60° 212.59° Grass 0 ft / 0 m 0 ft / 0 m
30 164 ft / 50 m 8,820 ft / 2,688 m 314.81° 299.80° Asphalt 0 ft / 0 m 0 ft / 0 m

Approach Navaids

Runway Type Ident Frequency Range Bearing (true) Bearing (mag) Slope Elevation
03 Localiser IRN 108.30 MHz 27 nm / 50 km 47.98° 32.97° - 377 ft / 115 m (AMSL)
03 Glidescope IRN 108.30 MHz 27 nm / 50 km 34.00° 18.99° 2.70° 377 ft / 115 m (AMSL)
03 DME IRN 108.30 MHz 27 nm / 50 km - - - 377 ft / 115 m (AMSL)
21 Localiser IQF 110.70 MHz 27 nm / 50 km 227.99° 212.98° - 377 ft / 115 m (AMSL)
21 Glidescope IQF 110.70 MHz 27 nm / 50 km 228.00° 212.99° 2.70° 377 ft / 115 m (AMSL)
21 DME IQF 110.70 MHz 27 nm / 50 km - - - 377 ft / 115 m (AMSL)

Popular Alternatives